sensor_id;sensor_type;location;lat;lon;timestamp;pressure;altitude;pressure_sealevel;temperature;humidity
38038;BME280;23843;51.320;12.340;2024-01-27T00:02:13;101655.16;;;6.46;72.08
38038;BME280;23843;51.320;12.340;2024-01-27T00:04:38;101657.22;;;6.44;71.48
38038;BME280;23843;51.320;12.340;2024-01-27T00:07:04;101666.75;;;6.41;72.08
38038;BME280;23843;51.320;12.340;2024-01-27T00:09:29;101666.56;;;6.43;72.20
38038;BME280;23843;51.320;12.340;2024-01-27T00:11:55;101665.72;;;6.42;71.87
38038;BME280;23843;51.320;12.340;2024-01-27T00:14:21;101669.50;;;6.41;71.88
38038;BME280;23843;51.320;12.340;2024-01-27T00:16:47;101683.31;;;6.41;71.67
38038;BME280;23843;51.320;12.340;2024-01-27T00:19:12;101683.13;;;6.43;71.74
38038;BME280;23843;51.320;12.340;2024-01-27T00:21:38;101693.63;;;6.47;72.01
38038;BME280;23843;51.320;12.340;2024-01-27T00:24:04;101685.00;;;6.50;71.96
38038;BME280;23843;51.320;12.340;2024-01-27T00:26:29;101680.31;;;6.51;72.13
38038;BME280;23843;51.320;12.340;2024-01-27T00:28:54;101683.94;;;6.51;71.85
38038;BME280;23843;51.320;12.340;2024-01-27T00:31:21;101685.69;;;6.52;71.25
38038;BME280;23843;51.320;12.340;2024-01-27T00:33:47;101691.38;;;6.51;72.15
38038;BME280;23843;51.320;12.340;2024-01-27T00:36:12;101688.81;;;6.49;71.50
38038;BME280;23843;51.320;12.340;2024-01-27T00:38:38;101697.25;;;6.48;71.50
38038;BME280;23843;51.320;12.340;2024-01-27T00:41:03;101693.63;;;6.47;72.21
38038;BME280;23843;51.320;12.340;2024-01-27T00:43:29;101689.31;;;6.45;71.98
38038;BME280;23843;51.320;12.340;2024-01-27T00:45:54;101701.59;;;6.42;71.98
38038;BME280;23843;51.320;12.340;2024-01-27T00:48:21;101697.09;;;6.41;71.39
38038;BME280;23843;51.320;12.340;2024-01-27T00:50:46;101702.63;;;6.41;71.40
38038;BME280;23843;51.320;12.340;2024-01-27T00:53:12;101695.38;;;6.40;71.50
38038;BME280;23843;51.320;12.340;2024-01-27T00:55:37;101703.66;;;6.40;72.36
38038;BME280;23843;51.320;12.340;2024-01-27T00:58:03;101702.97;;;6.38;71.80
38038;BME280;23843;51.320;12.340;2024-01-27T01:00:28;101709.50;;;6.37;72.17
38038;BME280;23843;51.320;12.340;2024-01-27T01:02:54;101706.59;;;6.39;71.50
38038;BME280;23843;51.320;12.340;2024-01-27T01:05:21;101709.34;;;6.39;71.51
38038;BME280;23843;51.320;12.340;2024-01-27T01:07:46;101708.31;;;6.40;71.53
38038;BME280;23843;51.320;12.340;2024-01-27T01:10:12;101714.88;;;6.39;71.37
38038;BME280;23843;51.320;12.340;2024-01-27T01:12:37;101717.63;;;6.39;71.59
38038;BME280;23843;51.320;12.340;2024-01-27T01:15:03;101725.91;;;6.39;71.71
38038;BME280;23843;51.320;12.340;2024-01-27T01:17:29;101729.69;;;6.38;70.85
38038;BME280;23843;51.320;12.340;2024-01-27T01:19:54;101732.63;;;6.36;70.95
38038;BME280;23843;51.320;12.340;2024-01-27T01:22:21;101735.38;;;6.36;71.19
38038;BME280;23843;51.320;12.340;2024-01-27T01:24:47;101731.75;;;6.36;71.51
38038;BME280;23843;51.320;12.340;2024-01-27T01:27:12;101739.53;;;6.32;71.16
38038;BME280;23843;51.320;12.340;2024-01-27T01:29:37;101737.13;;;6.29;71.65
38038;BME280;23843;51.320;12.340;2024-01-27T01:32:04;101741.97;;;6.27;71.47
38038;BME280;23843;51.320;12.340;2024-01-27T01:34:29;101741.97;;;6.27;71.53
38038;BME280;23843;51.320;12.340;2024-01-27T01:36:55;101746.78;;;6.25;71.18
38038;BME280;23843;51.320;12.340;2024-01-27T01:39:21;101746.09;;;6.23;71.87
38038;BME280;23843;51.320;12.340;2024-01-27T01:41:47;101746.25;;;6.21;71.92
38038;BME280;23843;51.320;12.340;2024-01-27T01:44:12;101734.56;;;6.19;71.85
38038;BME280;23843;51.320;12.340;2024-01-27T01:46:38;101729.38;;;6.16;71.32
38038;BME280;23843;51.320;12.340;2024-01-27T01:49:04;101733.69;;;6.11;70.97
38038;BME280;23843;51.320;12.340;2024-01-27T01:51:30;101735.25;;;6.05;71.61
38038;BME280;23843;51.320;12.340;2024-01-27T01:53:57;101739.53;;;6.00;70.96
38038;BME280;23843;51.320;12.340;2024-01-27T01:56:24;101733.69;;;5.95;72.13
38038;BME280;23843;51.320;12.340;2024-01-27T01:58:50;101743.16;;;5.92;71.34
38038;BME280;23843;51.320;12.340;2024-01-27T02:01:16;101740.75;;;5.89;71.63
38038;BME280;23843;51.320;12.340;2024-01-27T02:03:51;101734.66;;;5.85;71.32
38038;BME280;23843;51.320;12.340;2024-01-27T02:06:17;101738.66;;;5.83;70.99
38038;BME280;23843;51.320;12.340;2024-01-27T02:08:42;101734.00;;;5.75;71.34
38038;BME280;23843;51.320;12.340;2024-01-27T02:11:08;101746.53;;;5.70;71.61
38038;BME280;23843;51.320;12.340;2024-01-27T02:13:34;101750.16;;;5.62;71.55
38038;BME280;23843;51.320;12.340;2024-01-27T02:16:00;101751.34;;;5.60;71.43
38038;BME280;23843;51.320;12.340;2024-01-27T02:18:25;101747.38;;;5.54;71.23
38038;BME280;23843;51.320;12.340;2024-01-27T02:20:51;101753.22;;;5.51;71.53
38038;BME280;23843;51.320;12.340;2024-01-27T02:23:16;101753.53;;;5.48;71.67
38038;BME280;23843;51.320;12.340;2024-01-27T02:25:43;101749.56;;;5.42;71.74
38038;BME280;23843;51.320;12.340;2024-01-27T02:28:09;101759.22;;;5.38;71.80
38038;BME280;23843;51.320;12.340;2024-01-27T02:30:34;101753.88;;;5.37;71.66
38038;BME280;23843;51.320;12.340;2024-01-27T02:33:00;101758.69;;;5.35;71.86
38038;BME280;23843;51.320;12.340;2024-01-27T02:35:26;101758.16;;;5.31;71.91
38038;BME280;23843;51.320;12.340;2024-01-27T02:37:51;101765.88;;;5.28;71.52
38038;BME280;23843;51.320;12.340;2024-01-27T02:40:17;101769.16;;;5.23;71.55
38038;BME280;23843;51.320;12.340;2024-01-27T02:42:44;101760.34;;;5.20;71.48
38038;BME280;23843;51.320;12.340;2024-01-27T02:45:10;101775.50;;;5.16;71.85
38038;BME280;23843;51.320;12.340;2024-01-27T02:47:35;101770.28;;;5.13;71.49
38038;BME280;23843;51.320;12.340;2024-01-27T02:50:01;101772.53;;;5.09;71.80
38038;BME280;23843;51.320;12.340;2024-01-27T02:52:26;101778.91;;;5.09;71.63
38038;BME280;23843;51.320;12.340;2024-01-27T02:54:52;101774.06;;;5.12;71.35
38038;BME280;23843;51.320;12.340;2024-01-27T02:57:17;101770.13;;;5.14;71.95
38038;BME280;23843;51.320;12.340;2024-01-27T02:59:46;101769.66;;;5.19;71.83
38038;BME280;23843;51.320;12.340;2024-01-27T03:02:11;101782.94;;;5.23;71.48
38038;BME280;23843;51.320;12.340;2024-01-27T03:04:37;101786.03;;;5.28;71.52
38038;BME280;23843;51.320;12.340;2024-01-27T03:07:03;101794.66;;;5.33;71.21
38038;BME280;23843;51.320;12.340;2024-01-27T03:09:28;101793.47;;;5.36;71.39
38038;BME280;23843;51.320;12.340;2024-01-27T03:11:54;101796.78;;;5.39;70.82
38038;BME280;23843;51.320;12.340;2024-01-27T03:14:19;101798.31;;;5.42;71.02
38038;BME280;23843;51.320;12.340;2024-01-27T03:16:46;101804.53;;;5.44;70.97
38038;BME280;23843;51.320;12.340;2024-01-27T03:19:11;101802.66;;;5.44;71.40
38038;BME280;23843;51.320;12.340;2024-01-27T03:21:37;101807.28;;;5.44;71.22
38038;BME280;23843;51.320;12.340;2024-01-27T03:24:03;101811.06;;;5.43;71.09
38038;BME280;23843;51.320;12.340;2024-01-27T03:26:28;101813.97;;;5.41;70.86
38038;BME280;23843;51.320;12.340;2024-01-27T03:28:54;101817.59;;;5.42;71.50
38038;BME280;23843;51.320;12.340;2024-01-27T03:31:19;101821.06;;;5.44;70.99
38038;BME280;23843;51.320;12.340;2024-01-27T03:33:46;101815.41;;;5.45;71.01
38038;BME280;23843;51.320;12.340;2024-01-27T03:36:12;101813.50;;;5.46;70.88
38038;BME280;23843;51.320;12.340;2024-01-27T03:38:38;101807.59;;;5.41;71.32
38038;BME280;23843;51.320;12.340;2024-01-27T03:41:04;101811.03;;;5.35;70.92
38038;BME280;23843;51.320;12.340;2024-01-27T03:43:29;101814.28;;;5.30;71.28
38038;BME280;23843;51.320;12.340;2024-01-27T03:45:55;101823.22;;;5.24;71.74
38038;BME280;23843;51.320;12.340;2024-01-27T03:48:20;101828.53;;;5.18;71.32
38038;BME280;23843;51.320;12.340;2024-01-27T03:50:47;101835.53;;;5.12;71.60
38038;BME280;23843;51.320;12.340;2024-01-27T03:53:13;101826.03;;;5.06;71.15
38038;BME280;23843;51.320;12.340;2024-01-27T03:55:38;101823.78;;;5.02;71.44
38038;BME280;23843;51.320;12.340;2024-01-27T03:58:04;101831.66;;;4.97;71.60
38038;BME280;23843;51.320;12.340;2024-01-27T04:00:29;101833.19;;;4.91;71.44
38038;BME280;23843;51.320;12.340;2024-01-27T04:02:55;101827.16;;;4.88;71.46
38038;BME280;23843;51.320;12.340;2024-01-27T04:05:20;101827.31;;;4.86;71.83
38038;BME280;23843;51.320;12.340;2024-01-27T04:07:47;101833.84;;;4.85;71.65
38038;BME280;23843;51.320;12.340;2024-01-27T04:10:12;101843.97;;;4.85;71.50
38038;BME280;23843;51.320;12.340;2024-01-27T04:12:38;101843.28;;;4.83;71.48
38038;BME280;23843;51.320;12.340;2024-01-27T04:15:04;101837.94;;;4.81;71.63
38038;BME280;23843;51.320;12.340;2024-01-27T04:17:29;101846.88;;;4.83;71.41
38038;BME280;23843;51.320;12.340;2024-01-27T04:19:55;101855.84;;;4.85;71.53
38038;BME280;23843;51.320;12.340;2024-01-27T04:22:20;101855.72;;;4.87;71.35
38038;BME280;23843;51.320;12.340;2024-01-27T04:24:47;101848.16;;;4.89;71.46
38038;BME280;23843;51.320;12.340;2024-01-27T04:27:12;101837.81;;;4.91;71.22
38038;BME280;23843;51.320;12.340;2024-01-27T04:29:38;101840.56;;;4.91;71.41
38038;BME280;23843;51.320;12.340;2024-01-27T04:32:04;101833.19;;;4.91;71.09
38038;BME280;23843;51.320;12.340;2024-01-27T04:34:29;101833.19;;;4.91;71.03
38038;BME280;23843;51.320;12.340;2024-01-27T04:36:54;101834.03;;;4.92;71.11
38038;BME280;23843;51.320;12.340;2024-01-27T04:39:20;101831.28;;;4.92;71.71
38038;BME280;23843;51.320;12.340;2024-01-27T04:41:47;101837.66;;;4.92;71.36
38038;BME280;23843;51.320;12.340;2024-01-27T04:44:12;101838.38;;;4.94;71.71
38038;BME280;23843;51.320;12.340;2024-01-27T04:46:38;101837.34;;;4.95;71.01
38038;BME280;23843;51.320;12.340;2024-01-27T04:49:03;101830.13;;;4.94;71.18
38038;BME280;23843;51.320;12.340;2024-01-27T04:51:28;101834.91;;;4.92;71.68
38038;BME280;23843;51.320;12.340;2024-01-27T04:53:54;101829.75;;;4.89;71.40
38038;BME280;23843;51.320;12.340;2024-01-27T04:56:19;101843.81;;;4.86;71.28
38038;BME280;23843;51.320;12.340;2024-01-27T04:58:46;101836.75;;;4.84;71.14
38038;BME280;23843;51.320;12.340;2024-01-27T05:01:12;101840.50;;;4.83;71.01
38038;BME280;23843;51.320;12.340;2024-01-27T05:03:37;101840.69;;;4.81;71.21
38038;BME280;23843;51.320;12.340;2024-01-27T05:06:03;101856.50;;;4.79;71.09
38038;BME280;23843;51.320;12.340;2024-01-27T05:08:28;101846.69;;;4.77;71.29
38038;BME280;23843;51.320;12.340;2024-01-27T05:10:54;101854.25;;;4.75;71.81
38038;BME280;23843;51.320;12.340;2024-01-27T05:13:19;101845.28;;;4.73;71.90
38038;BME280;23843;51.320;12.340;2024-01-27T05:15:46;101848.91;;;4.73;71.78
38038;BME280;23843;51.320;12.340;2024-01-27T05:18:12;101849.06;;;4.72;71.42
38038;BME280;23843;51.320;12.340;2024-01-27T05:20:37;101855.28;;;4.74;71.64
38038;BME280;23843;51.320;12.340;2024-01-27T05:23:03;101854.78;;;4.78;71.39
38038;BME280;23843;51.320;12.340;2024-01-27T05:25:28;101850.50;;;4.84;71.54
38038;BME280;23843;51.320;12.340;2024-01-27T05:27:54;101850.91;;;4.89;71.33
38038;BME280;23843;51.320;12.340;2024-01-27T05:30:19;101851.13;;;4.95;71.24
38038;BME280;23843;51.320;12.340;2024-01-27T05:32:46;101848.59;;;5.02;71.15
38038;BME280;23843;51.320;12.340;2024-01-27T05:35:12;101852.56;;;5.07;71.58
38038;BME280;23843;51.320;12.340;2024-01-27T05:37:37;101858.28;;;5.14;71.78
38038;BME280;23843;51.320;12.340;2024-01-27T05:40:03;101869.66;;;5.19;71.41
38038;BME280;23843;51.320;12.340;2024-01-27T05:42:29;101865.41;;;5.25;71.13
38038;BME280;23843;51.320;12.340;2024-01-27T05:44:54;101868.69;;;5.28;71.47
38038;BME280;23843;51.320;12.340;2024-01-27T05:47:20;101869.25;;;5.32;71.19
38038;BME280;23843;51.320;12.340;2024-01-27T05:49:47;101873.53;;;5.34;71.09
38038;BME280;23843;51.320;12.340;2024-01-27T05:52:12;101867.72;;;5.37;71.10
38038;BME280;23843;51.320;12.340;2024-01-27T05:54:39;101870.31;;;5.39;71.19
38038;BME280;23843;51.320;12.340;2024-01-27T05:57:04;101871.19;;;5.39;70.88
38038;BME280;23843;51.320;12.340;2024-01-27T05:59:30;101878.22;;;5.42;70.61
38038;BME280;23843;51.320;12.340;2024-01-27T06:01:55;101879.09;;;5.42;71.27
38038;BME280;23843;51.320;12.340;2024-01-27T06:04:21;101878.94;;;5.44;71.01
38038;BME280;23843;51.320;12.340;2024-01-27T06:06:48;101879.81;;;5.44;71.15
38038;BME280;23843;51.320;12.340;2024-01-27T06:09:13;101892.56;;;5.45;71.13
38038;BME280;23843;51.320;12.340;2024-01-27T06:11:38;101897.06;;;5.46;71.09
38038;BME280;23843;51.320;12.340;2024-01-27T06:14:04;101894.44;;;5.45;71.15
38038;BME280;23843;51.320;12.340;2024-01-27T06:16:29;101888.94;;;5.45;71.06
38038;BME280;23843;51.320;12.340;2024-01-27T06:18:55;101897.38;;;5.43;71.11
38038;BME280;23843;51.320;12.340;2024-01-27T06:21:20;101903.03;;;5.42;71.10
38038;BME280;23843;51.320;12.340;2024-01-27T06:23:47;101905.97;;;5.40;70.62
38038;BME280;23843;51.320;12.340;2024-01-27T06:26:14;101912.50;;;5.39;70.78
38038;BME280;23843;51.320;12.340;2024-01-27T06:28:39;101913.53;;;5.38;71.05
38038;BME280;23843;51.320;12.340;2024-01-27T06:31:05;101927.47;;;5.37;71.30
38038;BME280;23843;51.320;12.340;2024-01-27T06:33:31;101906.78;;;5.33;71.18
38038;BME280;23843;51.320;12.340;2024-01-27T06:35:56;101917.09;;;5.31;71.10
38038;BME280;23843;51.320;12.340;2024-01-27T06:38:22;101925.53;;;5.29;70.89
38038;BME280;23843;51.320;12.340;2024-01-27T06:40:48;101926.72;;;5.27;71.31
38038;BME280;23843;51.320;12.340;2024-01-27T06:43:14;101928.06;;;5.23;71.50
38038;BME280;23843;51.320;12.340;2024-01-27T06:45:40;101924.25;;;5.16;71.13
38038;BME280;23843;51.320;12.340;2024-01-27T06:48:06;101930.56;;;5.08;71.33
38038;BME280;23843;51.320;12.340;2024-01-27T06:50:31;101935.50;;;5.04;71.42
38038;BME280;23843;51.320;12.340;2024-01-27T06:52:57;101935.13;;;4.99;71.50
38038;BME280;23843;51.320;12.340;2024-01-27T06:55:22;101930.97;;;4.95;71.50
38038;BME280;23843;51.320;12.340;2024-01-27T06:57:49;101933.88;;;4.94;71.41
38038;BME280;23843;51.320;12.340;2024-01-27T07:00:15;101931.44;;;4.91;71.15
38038;BME280;23843;51.320;12.340;2024-01-27T07:02:41;101942.47;;;4.91;71.48
38038;BME280;23843;51.320;12.340;2024-01-27T07:05:07;101947.81;;;4.92;71.47
38038;BME280;23843;51.320;12.340;2024-01-27T07:07:33;101944.56;;;4.97;71.61
38038;BME280;23843;51.320;12.340;2024-01-27T07:09:58;101953.22;;;5.02;71.67
38038;BME280;23843;51.320;12.340;2024-01-27T07:12:24;101961.72;;;5.08;71.46
38038;BME280;23843;51.320;12.340;2024-01-27T07:14:51;101961.38;;;5.12;71.64
38038;BME280;23843;51.320;12.340;2024-01-27T07:17:17;101960.91;;;5.16;71.53
38038;BME280;23843;51.320;12.340;2024-01-27T07:19:43;101965.25;;;5.19;71.54
38038;BME280;23843;51.320;12.340;2024-01-27T07:22:08;101955.63;;;5.23;71.43
38038;BME280;23843;51.320;12.340;2024-01-27T07:24:33;101962.38;;;5.28;71.71
38038;BME280;23843;51.320;12.340;2024-01-27T07:26:59;101965.34;;;5.35;71.01
38038;BME280;23843;51.320;12.340;2024-01-27T07:29:25;101970.19;;;5.41;71.47
38038;BME280;23843;51.320;12.340;2024-01-27T07:31:52;101973.19;;;5.47;71.10
38038;BME280;23843;51.320;12.340;2024-01-27T07:34:17;101969.06;;;5.52;70.52
38038;BME280;23843;51.320;12.340;2024-01-27T07:36:43;101976.69;;;5.58;70.82
38038;BME280;23843;51.320;12.340;2024-01-27T07:39:09;101985.50;;;5.61;71.43
38038;BME280;23843;51.320;12.340;2024-01-27T07:41:34;101990.53;;;5.66;70.64
38038;BME280;23843;51.320;12.340;2024-01-27T07:44:07;101991.06;;;5.69;71.34
38038;BME280;23843;51.320;12.340;2024-01-27T07:46:32;102001.44;;;5.75;70.57
38038;BME280;23843;51.320;12.340;2024-01-27T07:48:59;102010.09;;;5.80;70.99
38038;BME280;23843;51.320;12.340;2024-01-27T07:51:24;102007.53;;;5.87;70.96
38038;BME280;23843;51.320;12.340;2024-01-27T07:53:50;102006.03;;;5.93;71.27
38038;BME280;23843;51.320;12.340;2024-01-27T07:56:15;102008.84;;;6.01;70.83
38038;BME280;23843;51.320;12.340;2024-01-27T07:58:41;102001.47;;;6.09;70.80
38038;BME280;23843;51.320;12.340;2024-01-27T08:01:06;102009.94;;;6.16;70.61
38038;BME280;23843;51.320;12.340;2024-01-27T08:03:32;102008.25;;;6.23;71.14
38038;BME280;23843;51.320;12.340;2024-01-27T08:05:58;102002.06;;;6.29;70.24
38038;BME280;23843;51.320;12.340;2024-01-27T08:08:24;102007.25;;;6.32;70.02
38038;BME280;23843;51.320;12.340;2024-01-27T08:10:49;102007.75;;;6.36;71.17
38038;BME280;23843;51.320;12.340;2024-01-27T08:13:15;102011.81;;;6.49;70.94
38038;BME280;23843;51.320;12.340;2024-01-27T08:15:40;102007.56;;;6.79;70.93
38038;BME280;23843;51.320;12.340;2024-01-27T08:18:06;102007.91;;;7.41;71.40
38038;BME280;23843;51.320;12.340;2024-01-27T08:20:31;102006.91;;;8.05;71.17
38038;BME280;23843;51.320;12.340;2024-01-27T08:22:58;102001.06;;;8.70;70.93
38038;BME280;23843;51.320;12.340;2024-01-27T08:25:23;102001.88;;;9.24;70.35
38038;BME280;23843;51.320;12.340;2024-01-27T08:27:49;102011.88;;;9.71;69.98
38038;BME280;23843;51.320;12.340;2024-01-27T08:30:14;102013.13;;;10.12;70.69
38038;BME280;23843;51.320;12.340;2024-01-27T08:32:40;102004.31;;;10.74;70.22
38038;BME280;23843;51.320;12.340;2024-01-27T08:35:06;102013.09;;;11.35;69.31
38038;BME280;23843;51.320;12.340;2024-01-27T08:37:32;102004.38;;;11.87;69.06
38038;BME280;23843;51.320;12.340;2024-01-27T08:39:59;102008.53;;;12.39;69.43
38038;BME280;23843;51.320;12.340;2024-01-27T08:42:24;102004.66;;;13.01;68.85
38038;BME280;23843;51.320;12.340;2024-01-27T08:44:49;102002.22;;;13.58;68.14
38038;BME280;23843;51.320;12.340;2024-01-27T08:47:15;102013.56;;;13.96;67.83
38038;BME280;23843;51.320;12.340;2024-01-27T08:49:40;102009.59;;;14.37;67.41
38038;BME280;23843;51.320;12.340;2024-01-27T08:52:06;102010.56;;;14.75;66.56
38038;BME280;23843;51.320;12.340;2024-01-27T08:54:31;102009.06;;;15.11;65.33
38038;BME280;23843;51.320;12.340;2024-01-27T08:56:58;102018.31;;;15.43;64.21
38038;BME280;23843;51.320;12.340;2024-01-27T08:59:23;102025.81;;;15.55;63.34
38038;BME280;23843;51.320;12.340;2024-01-27T09:01:49;102016.81;;;15.47;63.17
38038;BME280;23843;51.320;12.340;2024-01-27T09:04:14;102021.00;;;15.31;63.61
38038;BME280;23843;51.320;12.340;2024-01-27T09:06:40;102033.22;;;15.05;63.44
38038;BME280;23843;51.320;12.340;2024-01-27T09:09:05;102032.28;;;14.80;64.12
38038;BME280;23843;51.320;12.340;2024-01-27T09:11:31;102037.25;;;14.71;64.51
38038;BME280;23843;51.320;12.340;2024-01-27T09:13:57;102030.34;;;14.80;63.87
38038;BME280;23843;51.320;12.340;2024-01-27T09:16:23;102035.88;;;14.94;62.96
38038;BME280;23843;51.320;12.340;2024-01-27T09:18:48;102033.28;;;14.92;61.83
38038;BME280;23843;51.320;12.340;2024-01-27T09:21:14;102034.91;;;14.68;61.21
38038;BME280;23843;51.320;12.340;2024-01-27T09:23:39;102045.75;;;14.25;60.97
38038;BME280;23843;51.320;12.340;2024-01-27T09:26:05;102045.19;;;13.77;61.32
38038;BME280;23843;51.320;12.340;2024-01-27T09:28:30;102047.50;;;13.34;61.91
38038;BME280;23843;51.320;12.340;2024-01-27T09:30:57;102056.78;;;12.87;62.49
38038;BME280;23843;51.320;12.340;2024-01-27T09:33:22;102063.84;;;12.42;62.74
38038;BME280;23843;51.320;12.340;2024-01-27T09:35:48;102061.69;;;12.03;62.69
38038;BME280;23843;51.320;12.340;2024-01-27T09:38:13;102064.25;;;11.77;63.37
38038;BME280;23843;51.320;12.340;2024-01-27T09:40:39;102065.59;;;11.59;63.48
38038;BME280;23843;51.320;12.340;2024-01-27T09:43:04;102070.34;;;11.44;63.78
38038;BME280;23843;51.320;12.340;2024-01-27T09:45:30;102064.19;;;11.27;63.91
38038;BME280;23843;51.320;12.340;2024-01-27T09:47:57;102069.72;;;11.06;63.78
38038;BME280;23843;51.320;12.340;2024-01-27T09:50:24;102065.88;;;10.86;64.03
38038;BME280;23843;51.320;12.340;2024-01-27T09:52:50;102060.72;;;10.68;64.54
38038;BME280;23843;51.320;12.340;2024-01-27T09:55:15;102071.75;;;10.47;64.13
38038;BME280;23843;51.320;12.340;2024-01-27T09:57:41;102071.09;;;10.30;64.43
38038;BME280;23843;51.320;12.340;2024-01-27T10:00:10;102073.66;;;10.17;65.12
38038;BME280;23843;51.320;12.340;2024-01-27T10:02:36;102068.56;;;10.06;64.97
38038;BME280;23843;51.320;12.340;2024-01-27T10:05:05;102069.34;;;10.00;65.13
38038;BME280;23843;51.320;12.340;2024-01-27T10:07:32;102067.19;;;9.87;65.06
38038;BME280;23843;51.320;12.340;2024-01-27T10:09:58;102068.13;;;9.80;65.25
38038;BME280;23843;51.320;12.340;2024-01-27T10:12:26;102071.47;;;9.75;65.61
38038;BME280;23843;51.320;12.340;2024-01-27T10:14:53;102068.22;;;9.71;65.29
38038;BME280;23843;51.320;12.340;2024-01-27T10:17:20;102078.84;;;9.68;65.76
38038;BME280;23843;51.320;12.340;2024-01-27T10:19:46;102083.41;;;9.61;65.29
38038;BME280;23843;51.320;12.340;2024-01-27T10:22:13;102073.25;;;9.53;65.39
38038;BME280;23843;51.320;12.340;2024-01-27T10:24:38;102074.69;;;9.49;65.30
38038;BME280;23843;51.320;12.340;2024-01-27T10:27:04;102076.06;;;9.45;65.42
38038;BME280;23843;51.320;12.340;2024-01-27T10:29:30;102072.31;;;9.38;65.40
38038;BME280;23843;51.320;12.340;2024-01-27T10:31:55;102083.13;;;9.33;65.54
38038;BME280;23843;51.320;12.340;2024-01-27T10:34:21;102078.97;;;9.29;65.36
38038;BME280;23843;51.320;12.340;2024-01-27T10:36:46;102081.28;;;9.25;65.68
38038;BME280;23843;51.320;12.340;2024-01-27T10:39:20;102088.91;;;9.23;65.89
38038;BME280;23843;51.320;12.340;2024-01-27T10:41:47;102085.94;;;9.25;65.87
38038;BME280;23843;51.320;12.340;2024-01-27T10:44:14;102082.13;;;9.26;65.80
38038;BME280;23843;51.320;12.340;2024-01-27T10:46:42;102083.00;;;9.26;65.87
38038;BME280;23843;51.320;12.340;2024-01-27T10:49:12;102089.19;;;9.28;65.73
38038;BME280;23843;51.320;12.340;2024-01-27T10:51:43;102090.94;;;9.29;65.98
38038;BME280;23843;51.320;12.340;2024-01-27T10:54:12;102091.09;;;9.28;65.80
38038;BME280;23843;51.320;12.340;2024-01-27T10:56:42;102085.94;;;9.25;65.35
38038;BME280;23843;51.320;12.340;2024-01-27T10:59:09;102089.59;;;9.25;65.78
38038;BME280;23843;51.320;12.340;2024-01-27T11:01:36;102083.00;;;9.26;65.86
38038;BME280;23843;51.320;12.340;2024-01-27T11:04:03;102083.66;;;9.28;65.57
38038;BME280;23843;51.320;12.340;2024-01-27T11:06:31;102078.31;;;9.27;65.78
38038;BME280;23843;51.320;12.340;2024-01-27T11:08:57;102085.38;;;9.29;65.56
38038;BME280;23843;51.320;12.340;2024-01-27T11:11:24;102088.16;;;9.29;65.73
38038;BME280;23843;51.320;12.340;2024-01-27T11:13:51;102075.84;;;9.32;65.81
38038;BME280;23843;51.320;12.340;2024-01-27T11:16:18;102086.00;;;9.40;66.10
38038;BME280;23843;51.320;12.340;2024-01-27T11:18:44;102088.91;;;9.46;65.65
38038;BME280;23843;51.320;12.340;2024-01-27T11:21:13;102084.22;;;9.47;65.35
38038;BME280;23843;51.320;12.340;2024-01-27T11:23:39;102080.75;;;9.45;65.53
38038;BME280;23843;51.320;12.340;2024-01-27T11:26:05;102073.47;;;9.44;65.76
38038;BME280;23843;51.320;12.340;2024-01-27T11:28:31;102079.03;;;9.44;65.73
38038;BME280;23843;51.320;12.340;2024-01-27T11:30:58;102081.63;;;9.45;65.77
38038;BME280;23843;51.320;12.340;2024-01-27T11:33:28;102080.75;;;9.45;65.70
38038;BME280;23843;51.320;12.340;2024-01-27T11:36:00;102086.88;;;9.40;65.63
38038;BME280;23843;51.320;12.340;2024-01-27T11:38:25;102083.25;;;9.40;65.81
38038;BME280;23843;51.320;12.340;2024-01-27T11:40:51;102090.69;;;9.39;65.66
38038;BME280;23843;51.320;12.340;2024-01-27T11:43:16;102087.91;;;9.39;65.63
38038;BME280;23843;51.320;12.340;2024-01-27T11:45:41;102094.34;;;9.40;65.69
38038;BME280;23843;51.320;12.340;2024-01-27T11:48:09;102094.34;;;9.40;65.72
38038;BME280;23843;51.320;12.340;2024-01-27T11:50:34;102088.09;;;9.37;65.58
38038;BME280;23843;51.320;12.340;2024-01-27T11:53:00;102091.25;;;9.34;65.64
38038;BME280;23843;51.320;12.340;2024-01-27T11:55:25;102095.25;;;9.32;65.54
38038;BME280;23843;51.320;12.340;2024-01-27T11:57:51;102096.47;;;9.29;65.34
38038;BME280;23843;51.320;12.340;2024-01-27T12:00:17;102108.25;;;9.31;65.79
38038;BME280;23843;51.320;12.340;2024-01-27T12:02:43;102101.50;;;9.34;65.90
38038;BME280;23843;51.320;12.340;2024-01-27T12:05:09;102104.06;;;9.35;65.76
38038;BME280;23843;51.320;12.340;2024-01-27T12:07:35;102107.50;;;9.37;65.67
38038;BME280;23843;51.320;12.340;2024-01-27T12:10:01;102101.97;;;9.37;65.79
38038;BME280;23843;51.320;12.340;2024-01-27T12:12:26;102099.19;;;9.37;65.80
38038;BME280;23843;51.320;12.340;2024-01-27T12:14:52;102101.09;;;9.37;65.66
38038;BME280;23843;51.320;12.340;2024-01-27T12:17:18;102101.50;;;9.34;65.61
38038;BME280;23843;51.320;12.340;2024-01-27T12:19:46;102094.56;;;9.30;65.54
38038;BME280;23843;51.320;12.340;2024-01-27T12:22:21;102102.88;;;9.30;66.00
38038;BME280;23843;51.320;12.340;2024-01-27T12:24:47;102101.84;;;9.31;65.69
38038;BME280;23843;51.320;12.340;2024-01-27T12:27:12;102098.22;;;9.30;65.40
38038;BME280;23843;51.320;12.340;2024-01-27T12:29:40;102097.34;;;9.30;65.77
38038;BME280;23843;51.320;12.340;2024-01-27T12:32:06;102103.06;;;9.28;65.69
38038;BME280;23843;51.320;12.340;2024-01-27T12:34:31;102102.19;;;9.28;65.59
38038;BME280;23843;51.320;12.340;2024-01-27T12:36:57;102101.38;;;9.27;65.76
38038;BME280;23843;51.320;12.340;2024-01-27T12:39:26;102094.97;;;9.27;65.73
38038;BME280;23843;51.320;12.340;2024-01-27T12:41:51;102093.22;;;9.26;65.70